weather.gov     
National Weather Service

Terminal Aerodrome Forecast
NWS Homepage
This page is being discontinued on March 12, 2014.
The same data is available at this site. Please update your bookmarks.
Thank you, and we apologize for the inconvenience.
Please send an email to SR-SRH.Webmaster@noaa.gov with any concerns.


Current Version
Previous Version:    01  02  03  04  05  06  07  08  09  10  11  12  13  14  15  16  17  18  19  20  21  22  23  24  25  26  27  28  29  30  
   31  32  33  34  35  36  37  38  39  
[Printable]
260
FTUS42 KTBW 181700
TAFPGD
TAF
KPGD 181739Z 1818/1918 17013KT P6SM SCT035 OVC060
      TEMPO 1821/1824 VRB15G25KT 6SM TSRA BKN025CB
     FM190000 17009KT P6SM -SHRA BKN030 OVC080
     FM190600 18008KT P6SM BKN020
     FM191200 23010KT P6SM BKN030
     FM191600 26016KT P6SM SCT030 BKN050=


U.S. Dept. of Commerce
NOAA National Weather Service
1325 East West Highway
Silver Spring, MD 20910
E-mail: w-nws.webmaster@noaa.gov
Page last modified: May 16, 2007
NATIONAL WEATHER SERVICE: for Safety, for Work, for Fun - FOR LIFE